sensor_id;sensor_type;location;lat;lon;timestamp;P1;durP1;ratioP1;P2;durP2;ratioP2
52208;SDS011;38507;53.132;6.394;2023-11-19T00:00:29;64.20;;;21.90;;
52208;SDS011;38507;53.132;6.394;2023-11-19T00:02:54;57.00;;;19.10;;
52208;SDS011;38507;53.132;6.394;2023-11-19T00:05:20;44.83;;;16.42;;
52208;SDS011;38507;53.132;6.394;2023-11-19T00:07:46;47.72;;;17.38;;
52208;SDS011;38507;53.132;6.394;2023-11-19T00:10:12;54.75;;;17.40;;
52208;SDS011;38507;53.132;6.394;2023-11-19T00:12:44;64.85;;;17.90;;
52208;SDS011;38507;53.132;6.394;2023-11-19T00:15:11;44.45;;;15.80;;
52208;SDS011;38507;53.132;6.394;2023-11-19T00:17:47;51.42;;;17.02;;
52208;SDS011;38507;53.132;6.394;2023-11-19T00:20:13;57.88;;;15.85;;
52208;SDS011;38507;53.132;6.394;2023-11-19T00:22:41;44.45;;;14.07;;
52208;SDS011;38507;53.132;6.394;2023-11-19T00:25:08;43.40;;;13.25;;
52208;SDS011;38507;53.132;6.394;2023-11-19T00:27:34;54.53;;;13.20;;
52208;SDS011;38507;53.132;6.394;2023-11-19T00:30:00;54.13;;;12.13;;
52208;SDS011;38507;53.132;6.394;2023-11-19T00:32:26;48.83;;;11.05;;
52208;SDS011;38507;53.132;6.394;2023-11-19T00:34:51;56.28;;;11.10;;
52208;SDS011;38507;53.132;6.394;2023-11-19T00:37:17;43.85;;;10.07;;
52208;SDS011;38507;53.132;6.394;2023-11-19T00:39:43;44.08;;;9.68;;
52208;SDS011;38507;53.132;6.394;2023-11-19T00:42:09;43.17;;;9.25;;
52208;SDS011;38507;53.132;6.394;2023-11-19T00:44:35;49.80;;;8.80;;
52208;SDS011;38507;53.132;6.394;2023-11-19T00:47:01;59.38;;;8.50;;
52208;SDS011;38507;53.132;6.394;2023-11-19T00:49:27;39.55;;;7.68;;
52208;SDS011;38507;53.132;6.394;2023-11-19T00:51:53;45.17;;;7.65;;
52208;SDS011;38507;53.132;6.394;2023-11-19T00:54:18;50.70;;;7.80;;
52208;SDS011;38507;53.132;6.394;2023-11-19T00:56:44;40.38;;;7.05;;
52208;SDS011;38507;53.132;6.394;2023-11-19T00:59:10;47.85;;;6.70;;
52208;SDS011;38507;53.132;6.394;2023-11-19T01:01:36;36.50;;;6.65;;
52208;SDS011;38507;53.132;6.394;2023-11-19T01:04:01;35.58;;;6.05;;
52208;SDS011;38507;53.132;6.394;2023-11-19T01:06:30;48.72;;;6.85;;
52208;SDS011;38507;53.132;6.394;2023-11-19T01:08:56;50.75;;;6.15;;
52208;SDS011;38507;53.132;6.394;2023-11-19T01:11:23;38.50;;;6.07;;
52208;SDS011;38507;53.132;6.394;2023-11-19T01:13:49;50.08;;;6.32;;
52208;SDS011;38507;53.132;6.394;2023-11-19T01:16:15;39.67;;;5.35;;
52208;SDS011;38507;53.132;6.394;2023-11-19T01:18:41;39.28;;;6.15;;
52208;SDS011;38507;53.132;6.394;2023-11-19T01:21:07;43.83;;;6.70;;
52208;SDS011;38507;53.132;6.394;2023-11-19T01:23:33;45.50;;;6.25;;
52208;SDS011;38507;53.132;6.394;2023-11-19T01:25:59;46.65;;;7.00;;
52208;SDS011;38507;53.132;6.394;2023-11-19T01:28:25;40.95;;;5.78;;
52208;SDS011;38507;53.132;6.394;2023-11-19T01:30:51;41.15;;;6.95;;
52208;SDS011;38507;53.132;6.394;2023-11-19T01:33:16;46.60;;;6.20;;
52208;SDS011;38507;53.132;6.394;2023-11-19T01:35:42;45.13;;;6.68;;
52208;SDS011;38507;53.132;6.394;2023-11-19T01:38:08;39.10;;;5.93;;
52208;SDS011;38507;53.132;6.394;2023-11-19T01:40:35;42.88;;;6.63;;
52208;SDS011;38507;53.132;6.394;2023-11-19T01:43:03;48.05;;;6.68;;
52208;SDS011;38507;53.132;6.394;2023-11-19T01:45:29;34.00;;;5.95;;
52208;SDS011;38507;53.132;6.394;2023-11-19T01:48:00;46.95;;;7.05;;
52208;SDS011;38507;53.132;6.394;2023-11-19T01:50:30;50.15;;;6.93;;
52208;SDS011;38507;53.132;6.394;2023-11-19T01:52:56;53.60;;;7.15;;
52208;SDS011;38507;53.132;6.394;2023-11-19T01:55:22;45.22;;;6.90;;
52208;SDS011;38507;53.132;6.394;2023-11-19T01:57:50;50.55;;;6.18;;
52208;SDS011;38507;53.132;6.394;2023-11-19T02:00:18;43.50;;;6.55;;
52208;SDS011;38507;53.132;6.394;2023-11-19T02:02:45;50.53;;;6.80;;
52208;SDS011;38507;53.132;6.394;2023-11-19T02:05:13;48.13;;;6.07;;
52208;SDS011;38507;53.132;6.394;2023-11-19T02:07:39;50.92;;;6.70;;
52208;SDS011;38507;53.132;6.394;2023-11-19T02:10:05;45.58;;;6.93;;
52208;SDS011;38507;53.132;6.394;2023-11-19T02:12:34;37.13;;;7.05;;
52208;SDS011;38507;53.132;6.394;2023-11-19T02:15:01;43.10;;;7.47;;
52208;SDS011;38507;53.132;6.394;2023-11-19T02:17:31;49.20;;;6.95;;
52208;SDS011;38507;53.132;6.394;2023-11-19T02:19:57;49.72;;;6.85;;
52208;SDS011;38507;53.132;6.394;2023-11-19T02:22:23;41.83;;;6.03;;
52208;SDS011;38507;53.132;6.394;2023-11-19T02:24:51;34.40;;;6.28;;
52208;SDS011;38507;53.132;6.394;2023-11-19T02:27:30;32.35;;;5.13;;
52208;SDS011;38507;53.132;6.394;2023-11-19T02:32:51;48.60;;;6.25;;
52208;SDS011;38507;53.132;6.394;2023-11-19T02:35:19;42.08;;;6.25;;
52208;SDS011;38507;53.132;6.394;2023-11-19T02:37:46;39.35;;;5.25;;
52208;SDS011;38507;53.132;6.394;2023-11-19T02:40:12;40.55;;;5.63;;
52208;SDS011;38507;53.132;6.394;2023-11-19T02:42:38;48.90;;;5.82;;
52208;SDS011;38507;53.132;6.394;2023-11-19T02:45:04;41.08;;;6.20;;
52208;SDS011;38507;53.132;6.394;2023-11-19T02:47:31;40.13;;;6.07;;
52208;SDS011;38507;53.132;6.394;2023-11-19T02:49:57;35.55;;;6.07;;
52208;SDS011;38507;53.132;6.394;2023-11-19T02:52:23;33.60;;;5.40;;
52208;SDS011;38507;53.132;6.394;2023-11-19T02:54:49;33.17;;;5.85;;
52208;SDS011;38507;53.132;6.394;2023-11-19T02:57:15;43.47;;;5.70;;
52208;SDS011;38507;53.132;6.394;2023-11-19T02:59:44;52.00;;;6.32;;
52208;SDS011;38507;53.132;6.394;2023-11-19T03:02:10;39.47;;;6.22;;
52208;SDS011;38507;53.132;6.394;2023-11-19T03:04:41;45.22;;;6.00;;
52208;SDS011;38507;53.132;6.394;2023-11-19T03:07:08;39.22;;;6.32;;
52208;SDS011;38507;53.132;6.394;2023-11-19T03:09:34;43.63;;;6.03;;
52208;SDS011;38507;53.132;6.394;2023-11-19T03:12:00;38.75;;;6.35;;
52208;SDS011;38507;53.132;6.394;2023-11-19T03:14:26;45.85;;;6.15;;
52208;SDS011;38507;53.132;6.394;2023-11-19T03:16:52;40.35;;;6.10;;
52208;SDS011;38507;53.132;6.394;2023-11-19T03:19:18;36.88;;;5.78;;
52208;SDS011;38507;53.132;6.394;2023-11-19T03:21:44;42.85;;;6.30;;
52208;SDS011;38507;53.132;6.394;2023-11-19T03:24:10;38.28;;;5.55;;
52208;SDS011;38507;53.132;6.394;2023-11-19T03:26:38;39.25;;;5.80;;
52208;SDS011;38507;53.132;6.394;2023-11-19T03:29:04;46.47;;;6.60;;
52208;SDS011;38507;53.132;6.394;2023-11-19T03:31:29;37.90;;;5.65;;
52208;SDS011;38507;53.132;6.394;2023-11-19T03:33:55;34.17;;;5.38;;
52208;SDS011;38507;53.132;6.394;2023-11-19T03:36:21;54.55;;;6.93;;
52208;SDS011;38507;53.132;6.394;2023-11-19T03:38:47;39.85;;;5.60;;
52208;SDS011;38507;53.132;6.394;2023-11-19T03:41:13;42.72;;;5.93;;
52208;SDS011;38507;53.132;6.394;2023-11-19T03:43:39;41.55;;;6.00;;
52208;SDS011;38507;53.132;6.394;2023-11-19T03:46:18;40.25;;;5.70;;
52208;SDS011;38507;53.132;6.394;2023-11-19T03:48:44;41.35;;;5.45;;
52208;SDS011;38507;53.132;6.394;2023-11-19T03:51:12;42.35;;;7.10;;
52208;SDS011;38507;53.132;6.394;2023-11-19T03:53:42;42.10;;;6.80;;
52208;SDS011;38507;53.132;6.394;2023-11-19T03:56:08;38.25;;;5.40;;
52208;SDS011;38507;53.132;6.394;2023-11-19T03:58:35;44.65;;;6.38;;
52208;SDS011;38507;53.132;6.394;2023-11-19T04:01:01;48.00;;;6.18;;
52208;SDS011;38507;53.132;6.394;2023-11-19T04:03:27;42.25;;;6.63;;
52208;SDS011;38507;53.132;6.394;2023-11-19T04:05:53;36.88;;;6.47;;
52208;SDS011;38507;53.132;6.394;2023-11-19T04:08:18;42.17;;;6.43;;
52208;SDS011;38507;53.132;6.394;2023-11-19T04:10:44;38.22;;;5.70;;
52208;SDS011;38507;53.132;6.394;2023-11-19T04:13:10;41.88;;;5.82;;
52208;SDS011;38507;53.132;6.394;2023-11-19T04:15:36;57.75;;;6.97;;
52208;SDS011;38507;53.132;6.394;2023-11-19T04:18:01;45.22;;;6.38;;
52208;SDS011;38507;53.132;6.394;2023-11-19T04:20:27;37.95;;;6.68;;
52208;SDS011;38507;53.132;6.394;2023-11-19T04:22:52;40.78;;;5.90;;
52208;SDS011;38507;53.132;6.394;2023-11-19T04:25:18;42.60;;;7.20;;
52208;SDS011;38507;53.132;6.394;2023-11-19T04:27:44;40.03;;;5.88;;
52208;SDS011;38507;53.132;6.394;2023-11-19T04:30:11;52.83;;;7.15;;
52208;SDS011;38507;53.132;6.394;2023-11-19T04:32:37;44.75;;;6.35;;
52208;SDS011;38507;53.132;6.394;2023-11-19T04:35:02;47.38;;;7.07;;
52208;SDS011;38507;53.132;6.394;2023-11-19T04:37:28;40.97;;;5.90;;
52208;SDS011;38507;53.132;6.394;2023-11-19T04:39:54;39.50;;;5.88;;
52208;SDS011;38507;53.132;6.394;2023-11-19T04:42:21;47.35;;;7.60;;
52208;SDS011;38507;53.132;6.394;2023-11-19T04:44:47;49.72;;;6.68;;
52208;SDS011;38507;53.132;6.394;2023-11-19T04:47:13;46.47;;;6.53;;
52208;SDS011;38507;53.132;6.394;2023-11-19T04:49:42;41.40;;;6.40;;
52208;SDS011;38507;53.132;6.394;2023-11-19T04:52:08;57.30;;;7.50;;
52208;SDS011;38507;53.132;6.394;2023-11-19T04:54:33;53.72;;;7.75;;
52208;SDS011;38507;53.132;6.394;2023-11-19T04:56:59;41.38;;;6.53;;
52208;SDS011;38507;53.132;6.394;2023-11-19T04:59:25;50.45;;;6.55;;
52208;SDS011;38507;53.132;6.394;2023-11-19T05:01:52;54.28;;;7.68;;
52208;SDS011;38507;53.132;6.394;2023-11-19T05:04:18;60.13;;;8.27;;
52208;SDS011;38507;53.132;6.394;2023-11-19T05:06:46;48.28;;;6.63;;
52208;SDS011;38507;53.132;6.394;2023-11-19T05:09:12;51.25;;;7.10;;
52208;SDS011;38507;53.132;6.394;2023-11-19T05:11:38;52.90;;;8.15;;
52208;SDS011;38507;53.132;6.394;2023-11-19T05:14:05;66.00;;;7.40;;
52208;SDS011;38507;53.132;6.394;2023-11-19T05:16:31;44.40;;;6.85;;
52208;SDS011;38507;53.132;6.394;2023-11-19T05:18:57;52.08;;;8.32;;
52208;SDS011;38507;53.132;6.394;2023-11-19T05:21:22;50.63;;;6.88;;
52208;SDS011;38507;53.132;6.394;2023-11-19T05:23:48;53.45;;;7.28;;
52208;SDS011;38507;53.132;6.394;2023-11-19T05:26:17;47.72;;;7.00;;
52208;SDS011;38507;53.132;6.394;2023-11-19T05:28:44;43.58;;;8.13;;
52208;SDS011;38507;53.132;6.394;2023-11-19T05:31:10;47.17;;;7.38;;
52208;SDS011;38507;53.132;6.394;2023-11-19T05:33:36;56.72;;;7.72;;
52208;SDS011;38507;53.132;6.394;2023-11-19T05:36:01;54.22;;;6.88;;
52208;SDS011;38507;53.132;6.394;2023-11-19T05:38:29;45.78;;;6.95;;
52208;SDS011;38507;53.132;6.394;2023-11-19T05:40:54;54.08;;;7.20;;
52208;SDS011;38507;53.132;6.394;2023-11-19T05:43:20;52.33;;;8.20;;
52208;SDS011;38507;53.132;6.394;2023-11-19T05:45:46;40.35;;;5.80;;
52208;SDS011;38507;53.132;6.394;2023-11-19T05:48:12;48.35;;;6.68;;
52208;SDS011;38507;53.132;6.394;2023-11-19T05:50:38;51.63;;;8.05;;
52208;SDS011;38507;53.132;6.394;2023-11-19T05:53:04;53.67;;;7.40;;
52208;SDS011;38507;53.132;6.394;2023-11-19T05:55:35;39.65;;;6.30;;
52208;SDS011;38507;53.132;6.394;2023-11-19T05:58:11;49.25;;;7.68;;
52208;SDS011;38507;53.132;6.394;2023-11-19T06:00:40;57.10;;;8.00;;
52208;SDS011;38507;53.132;6.394;2023-11-19T06:03:07;47.65;;;7.50;;
52208;SDS011;38507;53.132;6.394;2023-11-19T06:05:32;47.08;;;7.13;;
52208;SDS011;38507;53.132;6.394;2023-11-19T06:07:58;46.30;;;6.18;;
52208;SDS011;38507;53.132;6.394;2023-11-19T06:10:24;55.67;;;8.32;;
52208;SDS011;38507;53.132;6.394;2023-11-19T06:12:56;52.72;;;7.45;;
52208;SDS011;38507;53.132;6.394;2023-11-19T06:15:25;47.35;;;7.57;;
52208;SDS011;38507;53.132;6.394;2023-11-19T06:17:52;51.05;;;6.90;;
52208;SDS011;38507;53.132;6.394;2023-11-19T06:20:18;52.60;;;6.20;;
52208;SDS011;38507;53.132;6.394;2023-11-19T06:22:45;51.33;;;7.95;;
52208;SDS011;38507;53.132;6.394;2023-11-19T06:25:11;57.50;;;6.70;;
52208;SDS011;38507;53.132;6.394;2023-11-19T06:27:39;43.92;;;8.15;;
52208;SDS011;38507;53.132;6.394;2023-11-19T06:30:06;58.53;;;7.47;;
52208;SDS011;38507;53.132;6.394;2023-11-19T06:32:32;54.47;;;6.68;;
52208;SDS011;38507;53.132;6.394;2023-11-19T06:34:58;49.15;;;7.78;;
52208;SDS011;38507;53.132;6.394;2023-11-19T06:37:23;41.83;;;6.10;;
52208;SDS011;38507;53.132;6.394;2023-11-19T06:39:49;43.47;;;6.55;;
52208;SDS011;38507;53.132;6.394;2023-11-19T06:42:14;45.97;;;7.90;;
52208;SDS011;38507;53.132;6.394;2023-11-19T06:44:40;55.60;;;7.63;;
52208;SDS011;38507;53.132;6.394;2023-11-19T06:47:06;51.38;;;6.95;;
52208;SDS011;38507;53.132;6.394;2023-11-19T06:49:31;41.50;;;6.68;;
52208;SDS011;38507;53.132;6.394;2023-11-19T06:51:57;43.63;;;6.95;;
52208;SDS011;38507;53.132;6.394;2023-11-19T06:54:23;49.00;;;7.18;;
52208;SDS011;38507;53.132;6.394;2023-11-19T06:56:49;54.58;;;7.85;;
52208;SDS011;38507;53.132;6.394;2023-11-19T06:59:15;48.70;;;6.85;;
52208;SDS011;38507;53.132;6.394;2023-11-19T07:01:40;57.00;;;8.07;;
52208;SDS011;38507;53.132;6.394;2023-11-19T07:04:10;47.58;;;6.88;;
52208;SDS011;38507;53.132;6.394;2023-11-19T07:06:38;51.75;;;7.20;;
52208;SDS011;38507;53.132;6.394;2023-11-19T07:09:07;39.67;;;6.00;;
52208;SDS011;38507;53.132;6.394;2023-11-19T07:11:37;51.42;;;7.47;;
52208;SDS011;38507;53.132;6.394;2023-11-19T07:14:07;54.45;;;7.07;;
52208;SDS011;38507;53.132;6.394;2023-11-19T07:16:33;42.92;;;6.10;;
52208;SDS011;38507;53.132;6.394;2023-11-19T07:19:05;52.65;;;6.47;;
52208;SDS011;38507;53.132;6.394;2023-11-19T07:21:31;44.53;;;7.07;;
52208;SDS011;38507;53.132;6.394;2023-11-19T07:23:58;41.95;;;7.90;;
52208;SDS011;38507;53.132;6.394;2023-11-19T07:26:24;42.67;;;7.82;;
52208;SDS011;38507;53.132;6.394;2023-11-19T07:28:50;48.00;;;7.18;;
52208;SDS011;38507;53.132;6.394;2023-11-19T07:31:16;39.97;;;6.13;;
52208;SDS011;38507;53.132;6.394;2023-11-19T07:33:44;52.22;;;7.03;;
52208;SDS011;38507;53.132;6.394;2023-11-19T07:36:10;41.47;;;6.53;;
52208;SDS011;38507;53.132;6.394;2023-11-19T07:38:37;46.47;;;6.78;;
52208;SDS011;38507;53.132;6.394;2023-11-19T07:41:03;48.88;;;6.72;;
52208;SDS011;38507;53.132;6.394;2023-11-19T07:43:30;37.53;;;6.65;;
52208;SDS011;38507;53.132;6.394;2023-11-19T07:45:55;35.88;;;6.20;;
52208;SDS011;38507;53.132;6.394;2023-11-19T07:48:24;44.42;;;6.50;;
52208;SDS011;38507;53.132;6.394;2023-11-19T07:50:50;50.83;;;7.35;;
52208;SDS011;38507;53.132;6.394;2023-11-19T07:53:16;50.33;;;7.68;;
52208;SDS011;38507;53.132;6.394;2023-11-19T07:55:41;48.78;;;7.85;;
52208;SDS011;38507;53.132;6.394;2023-11-19T07:58:09;48.78;;;6.95;;
52208;SDS011;38507;53.132;6.394;2023-11-19T08:00:35;49.88;;;7.40;;
52208;SDS011;38507;53.132;6.394;2023-11-19T08:03:02;45.65;;;7.65;;
52208;SDS011;38507;53.132;6.394;2023-11-19T08:05:28;51.38;;;7.25;;
52208;SDS011;38507;53.132;6.394;2023-11-19T08:07:53;42.13;;;5.93;;
52208;SDS011;38507;53.132;6.394;2023-11-19T08:10:19;43.22;;;6.50;;
52208;SDS011;38507;53.132;6.394;2023-11-19T08:12:45;44.33;;;6.85;;
52208;SDS011;38507;53.132;6.394;2023-11-19T08:15:11;41.50;;;6.00;;
52208;SDS011;38507;53.132;6.394;2023-11-19T08:17:37;41.05;;;6.63;;
52208;SDS011;38507;53.132;6.394;2023-11-19T08:20:02;53.60;;;6.97;;
52208;SDS011;38507;53.132;6.394;2023-11-19T08:22:30;48.28;;;6.75;;
52208;SDS011;38507;53.132;6.394;2023-11-19T08:24:56;39.28;;;6.35;;
52208;SDS011;38507;53.132;6.394;2023-11-19T08:27:22;45.40;;;7.07;;
52208;SDS011;38507;53.132;6.394;2023-11-19T08:29:54;49.10;;;7.85;;
52208;SDS011;38507;53.132;6.394;2023-11-19T08:32:26;48.47;;;6.78;;
52208;SDS011;38507;53.132;6.394;2023-11-19T08:34:52;41.63;;;5.97;;
52208;SDS011;38507;53.132;6.394;2023-11-19T08:37:18;47.30;;;5.80;;
52208;SDS011;38507;53.132;6.394;2023-11-19T08:39:49;46.55;;;6.88;;
52208;SDS011;38507;53.132;6.394;2023-11-19T08:42:16;42.92;;;6.63;;
52208;SDS011;38507;53.132;6.394;2023-11-19T08:44:51;47.83;;;7.70;;
52208;SDS011;38507;53.132;6.394;2023-11-19T08:47:19;49.42;;;7.28;;
52208;SDS011;38507;53.132;6.394;2023-11-19T08:49:45;46.15;;;7.28;;
52208;SDS011;38507;53.132;6.394;2023-11-19T08:52:11;46.05;;;7.53;;
52208;SDS011;38507;53.132;6.394;2023-11-19T08:54:37;47.60;;;6.72;;
52208;SDS011;38507;53.132;6.394;2023-11-19T08:57:03;48.85;;;7.07;;
52208;SDS011;38507;53.132;6.394;2023-11-19T08:59:29;49.22;;;8.02;;
52208;SDS011;38507;53.132;6.394;2023-11-19T09:01:55;46.45;;;7.03;;
52208;SDS011;38507;53.132;6.394;2023-11-19T09:04:21;51.05;;;6.88;;
52208;SDS011;38507;53.132;6.394;2023-11-19T09:06:47;50.17;;;6.43;;
52208;SDS011;38507;53.132;6.394;2023-11-19T09:09:14;42.22;;;7.22;;
52208;SDS011;38507;53.132;6.394;2023-11-19T09:11:40;43.58;;;7.45;;
52208;SDS011;38507;53.132;6.394;2023-11-19T09:14:05;51.03;;;7.20;;
52208;SDS011;38507;53.132;6.394;2023-11-19T09:16:31;47.13;;;7.75;;
52208;SDS011;38507;53.132;6.394;2023-11-19T09:18:57;45.92;;;7.18;;
52208;SDS011;38507;53.132;6.394;2023-11-19T09:21:24;56.08;;;7.25;;
52208;SDS011;38507;53.132;6.394;2023-11-19T09:23:50;38.72;;;6.45;;
52208;SDS011;38507;53.132;6.394;2023-11-19T09:26:16;47.17;;;6.90;;
52208;SDS011;38507;53.132;6.394;2023-11-19T09:28:41;46.45;;;7.03;;
52208;SDS011;38507;53.132;6.394;2023-11-19T09:31:14;46.15;;;6.18;;
52208;SDS011;38507;53.132;6.394;2023-11-19T09:33:43;54.40;;;7.03;;
52208;SDS011;38507;53.132;6.394;2023-11-19T09:36:09;45.97;;;6.88;;
52208;SDS011;38507;53.132;6.394;2023-11-19T09:38:38;45.28;;;6.85;;
52208;SDS011;38507;53.132;6.394;2023-11-19T09:41:05;39.60;;;5.70;;
52208;SDS011;38507;53.132;6.394;2023-11-19T09:43:34;39.90;;;6.78;;
52208;SDS011;38507;53.132;6.394;2023-11-19T09:46:07;45.05;;;7.05;;
52208;SDS011;38507;53.132;6.394;2023-11-19T09:48:38;46.55;;;7.20;;
52208;SDS011;38507;53.132;6.394;2023-11-19T09:51:08;45.55;;;7.35;;
52208;SDS011;38507;53.132;6.394;2023-11-19T09:53:35;50.10;;;6.97;;
52208;SDS011;38507;53.132;6.394;2023-11-19T09:56:01;42.08;;;6.43;;
52208;SDS011;38507;53.132;6.394;2023-11-19T09:58:28;39.38;;;6.53;;
52208;SDS011;38507;53.132;6.394;2023-11-19T10:00:56;51.85;;;7.38;;
52208;SDS011;38507;53.132;6.394;2023-11-19T10:03:24;47.28;;;6.75;;
52208;SDS011;38507;53.132;6.394;2023-11-19T10:05:52;39.33;;;6.55;;
52208;SDS011;38507;53.132;6.394;2023-11-19T10:08:20;51.33;;;8.43;;
52208;SDS011;38507;53.132;6.394;2023-11-19T10:10:45;58.17;;;7.93;;
52208;SDS011;38507;53.132;6.394;2023-11-19T10:13:12;37.95;;;6.68;;
52208;SDS011;38507;53.132;6.394;2023-11-19T10:15:39;45.03;;;6.05;;
52208;SDS011;38507;53.132;6.394;2023-11-19T10:18:06;41.03;;;6.47;;
52208;SDS011;38507;53.132;6.394;2023-11-19T10:20:35;43.25;;;7.00;;
52208;SDS011;38507;53.132;6.394;2023-11-19T10:23:02;42.35;;;7.10;;
52208;SDS011;38507;53.132;6.394;2023-11-19T10:25:28;39.67;;;6.90;;
52208;SDS011;38507;53.132;6.394;2023-11-19T10:27:55;36.60;;;6.03;;
52208;SDS011;38507;53.132;6.394;2023-11-19T10:30:22;32.42;;;5.88;;
52208;SDS011;38507;53.132;6.394;2023-11-19T10:33:11;49.22;;;6.10;;
52208;SDS011;38507;53.132;6.394;2023-11-19T10:35:55;42.92;;;6.25;;
52208;SDS011;38507;53.132;6.394;2023-11-19T10:38:22;40.15;;;6.47;;
52208;SDS011;38507;53.132;6.394;2023-11-19T10:40:48;47.03;;;6.40;;
52208;SDS011;38507;53.132;6.394;2023-11-19T10:43:15;48.80;;;7.10;;
52208;SDS011;38507;53.132;6.394;2023-11-19T10:45:44;44.42;;;6.30;;
52208;SDS011;38507;53.132;6.394;2023-11-19T10:48:10;52.25;;;7.10;;
52208;SDS011;38507;53.132;6.394;2023-11-19T10:50:38;41.50;;;6.65;;
52208;SDS011;38507;53.132;6.394;2023-11-19T10:53:05;41.85;;;6.70;;
52208;SDS011;38507;53.132;6.394;2023-11-19T10:55:33;45.10;;;6.00;;
52208;SDS011;38507;53.132;6.394;2023-11-19T10:58:01;44.60;;;7.32;;
52208;SDS011;38507;53.132;6.394;2023-11-19T11:00:29;43.28;;;6.20;;
52208;SDS011;38507;53.132;6.394;2023-11-19T11:05:50;37.63;;;5.25;;
52208;SDS011;38507;53.132;6.394;2023-11-19T11:08:17;43.72;;;5.70;;
52208;SDS011;38507;53.132;6.394;2023-11-19T11:10:53;32.53;;;6.70;;
52208;SDS011;38507;53.132;6.394;2023-11-19T11:13:20;43.03;;;6.55;;
52208;SDS011;38507;53.132;6.394;2023-11-19T11:15:49;44.50;;;6.13;;
52208;SDS011;38507;53.132;6.394;2023-11-19T11:18:15;39.28;;;5.97;;
52208;SDS011;38507;53.132;6.394;2023-11-19T11:20:43;35.15;;;5.50;;
52208;SDS011;38507;53.132;6.394;2023-11-19T11:31:25;35.55;;;5.50;;
52208;SDS011;38507;53.132;6.394;2023-11-19T11:37:34;44.50;;;6.90;;
52208;SDS011;38507;53.132;6.394;2023-11-19T11:40:04;40.15;;;5.55;;
52208;SDS011;38507;53.132;6.394;2023-11-19T11:42:35;39.20;;;6.05;;
52208;SDS011;38507;53.132;6.394;2023-11-19T11:45:04;47.35;;;7.65;;
52208;SDS011;38507;53.132;6.394;2023-11-19T11:50:15;37.03;;;6.20;;
52208;SDS011;38507;53.132;6.394;2023-11-19T11:57:50;50.72;;;6.88;;
52208;SDS011;38507;53.132;6.394;2023-11-19T12:00:22;32.85;;;6.78;;
52208;SDS011;38507;53.132;6.394;2023-11-19T12:02:54;38.67;;;5.90;;
52208;SDS011;38507;53.132;6.394;2023-11-19T12:05:24;42.05;;;5.75;;
52208;SDS011;38507;53.132;6.394;2023-11-19T12:08:03;37.47;;;5.68;;
52208;SDS011;38507;53.132;6.394;2023-11-19T12:10:32;36.83;;;5.57;;
52208;SDS011;38507;53.132;6.394;2023-11-19T12:13:14;44.83;;;6.03;;
52208;SDS011;38507;53.132;6.394;2023-11-19T12:18:28;38.88;;;5.97;;
52208;SDS011;38507;53.132;6.394;2023-11-19T12:20:55;33.13;;;6.18;;
52208;SDS011;38507;53.132;6.394;2023-11-19T12:23:24;37.30;;;6.55;;
52208;SDS011;38507;53.132;6.394;2023-11-19T12:25:50;39.85;;;6.18;;
52208;SDS011;38507;53.132;6.394;2023-11-19T12:28:16;47.45;;;5.95;;
52208;SDS011;38507;53.132;6.394;2023-11-19T12:30:42;39.08;;;6.18;;
52208;SDS011;38507;53.132;6.394;2023-11-19T12:33:11;41.67;;;6.20;;
52208;SDS011;38507;53.132;6.394;2023-11-19T12:35:41;42.85;;;7.20;;
52208;SDS011;38507;53.132;6.394;2023-11-19T12:38:20;37.22;;;6.53;;
52208;SDS011;38507;53.132;6.394;2023-11-19T12:41:08;26.23;;;5.45;;
52208;SDS011;38507;53.132;6.394;2023-11-19T12:43:36;34.10;;;4.82;;
52208;SDS011;38507;53.132;6.394;2023-11-19T12:46:03;37.17;;;6.00;;
52208;SDS011;38507;53.132;6.394;2023-11-19T12:48:42;40.42;;;6.25;;
52208;SDS011;38507;53.132;6.394;2023-11-19T12:51:07;32.50;;;5.00;;
52208;SDS011;38507;53.132;6.394;2023-11-19T12:53:46;33.83;;;5.50;;
52208;SDS011;38507;53.132;6.394;2023-11-19T12:56:16;36.65;;;5.80;;
52208;SDS011;38507;53.132;6.394;2023-11-19T12:58:41;33.78;;;5.53;;
52208;SDS011;38507;53.132;6.394;2023-11-19T13:01:08;37.70;;;5.32;;
52208;SDS011;38507;53.132;6.394;2023-11-19T13:03:37;39.38;;;6.15;;
52208;SDS011;38507;53.132;6.394;2023-11-19T13:06:06;38.05;;;5.80;;
52208;SDS011;38507;53.132;6.394;2023-11-19T13:11:29;34.50;;;6.18;;
52208;SDS011;38507;53.132;6.394;2023-11-19T13:13:59;35.10;;;5.28;;
52208;SDS011;38507;53.132;6.394;2023-11-19T13:16:29;28.70;;;5.57;;
52208;SDS011;38507;53.132;6.394;2023-11-19T13:18:55;29.63;;;5.00;;
52208;SDS011;38507;53.132;6.394;2023-11-19T13:21:22;33.88;;;4.65;;
52208;SDS011;38507;53.132;6.394;2023-11-19T13:23:48;36.53;;;5.55;;
52208;SDS011;38507;53.132;6.394;2023-11-19T13:26:15;37.88;;;5.82;;
52208;SDS011;38507;53.132;6.394;2023-11-19T13:28:41;38.85;;;4.82;;
52208;SDS011;38507;53.132;6.394;2023-11-19T13:31:06;36.58;;;5.60;;
52208;SDS011;38507;53.132;6.394;2023-11-19T13:33:32;31.27;;;5.32;;
52208;SDS011;38507;53.132;6.394;2023-11-19T13:35:59;33.88;;;6.22;;
52208;SDS011;38507;53.132;6.394;2023-11-19T13:38:30;29.40;;;5.75;;
52208;SDS011;38507;53.132;6.394;2023-11-19T13:41:00;33.40;;;5.25;;
52208;SDS011;38507;53.132;6.394;2023-11-19T13:43:26;33.85;;;5.25;;
52208;SDS011;38507;53.132;6.394;2023-11-19T13:45:55;44.20;;;6.78;;
52208;SDS011;38507;53.132;6.394;2023-11-19T13:48:21;28.73;;;4.47;;
52208;SDS011;38507;53.132;6.394;2023-11-19T13:50:47;38.53;;;6.68;;
52208;SDS011;38507;53.132;6.394;2023-11-19T13:53:13;26.05;;;4.38;;
52208;SDS011;38507;53.132;6.394;2023-11-19T13:55:38;36.70;;;5.45;;
52208;SDS011;38507;53.132;6.394;2023-11-19T13:58:04;30.52;;;5.15;;
52208;SDS011;38507;53.132;6.394;2023-11-19T14:00:30;29.70;;;4.60;;
52208;SDS011;38507;53.132;6.394;2023-11-19T14:02:55;30.02;;;5.13;;
52208;SDS011;38507;53.132;6.394;2023-11-19T14:05:21;29.77;;;4.78;;
52208;SDS011;38507;53.132;6.394;2023-11-19T14:07:48;32.47;;;5.65;;
52208;SDS011;38507;53.132;6.394;2023-11-19T14:10:14;31.83;;;5.20;;
52208;SDS011;38507;53.132;6.394;2023-11-19T14:12:40;30.60;;;4.95;;
52208;SDS011;38507;53.132;6.394;2023-11-19T14:15:06;33.20;;;5.72;;
52208;SDS011;38507;53.132;6.394;2023-11-19T14:17:40;34.33;;;4.78;;
52208;SDS011;38507;53.132;6.394;2023-11-19T14:20:06;43.20;;;5.75;;
52208;SDS011;38507;53.132;6.394;2023-11-19T14:22:45;33.50;;;5.30;;
52208;SDS011;38507;53.132;6.394;2023-11-19T14:25:14;39.88;;;5.40;;
52208;SDS011;38507;53.132;6.394;2023-11-19T14:27:40;31.77;;;5.63;;
52208;SDS011;38507;53.132;6.394;2023-11-19T14:30:07;29.80;;;5.03;;
52208;SDS011;38507;53.132;6.394;2023-11-19T14:32:36;31.63;;;5.63;;
52208;SDS011;38507;53.132;6.394;2023-11-19T14:35:02;30.98;;;5.35;;
52208;SDS011;38507;53.132;6.394;2023-11-19T14:37:29;41.92;;;5.93;;
52208;SDS011;38507;53.132;6.394;2023-11-19T14:39:56;31.70;;;5.55;;
52208;SDS011;38507;53.132;6.394;2023-11-19T14:42:22;32.10;;;5.22;;
52208;SDS011;38507;53.132;6.394;2023-11-19T14:44:50;37.90;;;4.85;;
52208;SDS011;38507;53.132;6.394;2023-11-19T14:47:18;28.70;;;4.32;;
52208;SDS011;38507;53.132;6.394;2023-11-19T14:49:44;33.40;;;4.85;;
52208;SDS011;38507;53.132;6.394;2023-11-19T14:52:10;44.50;;;5.75;;
52208;SDS011;38507;53.132;6.394;2023-11-19T14:54:36;34.35;;;5.38;;
52208;SDS011;38507;53.132;6.394;2023-11-19T14:57:03;37.00;;;6.28;;
52208;SDS011;38507;53.132;6.394;2023-11-19T14:59:29;29.67;;;4.88;;
52208;SDS011;38507;53.132;6.394;2023-11-19T15:01:55;32.80;;;4.55;;
52208;SDS011;38507;53.132;6.394;2023-11-19T15:04:20;32.03;;;4.72;;